Time;durP1;ratioP1;P1;durP2;ratioP2;P2;SDS_P1;SDS_P2;PMS_P1;PMS_P2;Temp;Humidity;BMP_temperature;BMP_pressure;BME280_temperature;BME280_humidity;BME280_pressure;Samples;Min_cycle;Max_cycle;Signal;HPM_P1;HPM_P2
2023/01/11 00:00:06;;;;;;;8.93;2.38;;;4.00;99.90;;;;;;5110496;28;20033;-55
2023/01/11 00:02:33;;;;;;;12.07;3.17;;;3.90;99.90;;;;;;5089157;28;20097;-57
2023/01/11 00:04:58;;;;;;;7.20;2.42;;;4.00;99.90;;;;;;5099037;28;20020;-56
2023/01/11 00:07:24;;;;;;;9.27;2.42;;;4.00;99.90;;;;;;5103398;28;20019;-55
2023/01/11 00:09:49;;;;;;;11.98;2.90;;;3.90;99.90;;;;;;5090714;28;20052;-57
2023/01/11 00:12:15;;;;;;;6.22;2.72;;;4.00;99.90;;;;;;5093123;28;20304;-54
2023/01/11 00:14:40;;;;;;;6.63;2.67;;;4.00;99.90;;;;;;5109722;28;20080;-57
2023/01/11 00:17:06;;;;;;;11.60;2.33;;;4.00;99.90;;;;;;5088925;28;20070;-54
2023/01/11 00:19:31;;;;;;;7.13;2.28;;;4.00;99.90;;;;;;5109766;28;20039;-56
2023/01/11 00:21:57;;;;;;;11.80;2.80;;;4.00;99.90;;;;;;5088611;28;20031;-59
2023/01/11 00:24:22;;;;;;;6.75;2.20;;;4.00;99.90;;;;;;5107922;28;20028;-49
2023/01/11 00:26:48;;;;;;;9.60;2.45;;;4.10;99.90;;;;;;5086788;28;20028;-47
2023/01/11 00:29:13;;;;;;;8.18;2.25;;;4.10;99.90;;;;;;5108651;28;20040;-50
2023/01/11 00:31:39;;;;;;;8.93;2.50;;;4.10;99.90;;;;;;5088440;28;20621;-49
2023/01/11 00:34:04;;;;;;;7.15;2.50;;;4.10;99.90;;;;;;5109437;28;20032;-47
2023/01/11 00:36:30;;;;;;;4.50;2.17;;;4.10;99.90;;;;;;5086696;28;20023;-50
2023/01/11 00:38:55;;;;;;;10.88;2.55;;;4.10;99.90;;;;;;5089932;28;20081;-47
2023/01/11 00:49:37;;;;;;;8.45;2.97;;;4.20;99.90;;;;;;5069328;28;20104;-50
2023/01/11 00:52:07;;;;;;;9.68;2.90;;;4.20;99.90;;;;;;5095127;28;20032;-47
2023/01/11 00:54:40;;;;;;;7.85;2.63;;;4.20;99.90;;;;;;5109759;28;20031;-47
2023/01/11 00:57:06;;;;;;;9.15;3.05;;;4.20;99.90;;;;;;5091826;28;20040;-47
2023/01/11 00:59:38;;;;;;;10.80;2.30;;;4.20;99.90;;;;;;5089934;28;20035;-49
2023/01/11 01:02:04;;;;;;;8.40;2.53;;;4.20;99.90;;;;;;5095828;28;20031;-53
2023/01/11 01:04:29;;;;;;;5.65;2.55;;;4.20;99.90;;;;;;5107511;28;20195;-50
2023/01/11 01:06:55;;;;;;;8.10;2.38;;;4.20;99.90;;;;;;5091884;28;20705;-52
2023/01/11 01:09:20;;;;;;;7.15;2.53;;;4.20;99.90;;;;;;5089729;28;20051;-48
2023/01/11 01:11:46;;;;;;;6.22;2.17;;;4.20;99.90;;;;;;5107053;28;20040;-49
2023/01/11 01:14:25;;;;;;;13.95;2.35;;;4.20;99.90;;;;;;5089975;28;20030;-52
2023/01/11 01:16:51;;;;;;;7.38;2.42;;;4.30;99.90;;;;;;5087104;28;20399;-52
2023/01/11 01:19:17;;;;;;;9.10;2.35;;;4.30;99.90;;;;;;5089551;28;20039;-47
2023/01/11 01:21:42;;;;;;;5.68;2.28;;;4.30;99.90;;;;;;5106912;28;20035;-50
2023/01/11 01:24:08;;;;;;;9.02;2.72;;;4.30;99.90;;;;;;5089813;28;20399;-47
2023/01/11 01:26:33;;;;;;;7.10;2.38;;;4.30;99.90;;;;;;5106756;28;20418;-53
2023/01/11 01:28:59;;;;;;;6.55;1.98;;;4.40;99.90;;;;;;5109271;28;20107;-50
2023/01/11 01:31:25;;;;;;;4.35;2.60;;;4.40;99.90;;;;;;5094287;28;20058;-49
2023/01/11 01:33:50;;;;;;;7.65;2.20;;;4.40;99.90;;;;;;5109539;28;20058;-49
2023/01/11 01:36:15;;;;;;;9.98;2.70;;;4.40;99.90;;;;;;5092718;28;20082;-51
2023/01/11 01:38:41;;;;;;;7.57;2.65;;;4.40;99.90;;;;;;5109174;28;20551;-49
2023/01/11 01:41:06;;;;;;;11.75;2.35;;;4.50;99.90;;;;;;5091633;28;20093;-48
2023/01/11 01:43:53;;;;;;;10.05;2.35;;;4.50;99.90;;;;;;5109368;28;20027;-47
2023/01/11 01:46:21;;;;;;;10.45;2.53;;;4.50;99.90;;;;;;5078101;28;20483;-48
2023/01/11 01:48:52;;;;;;;4.68;1.92;;;4.50;99.90;;;;;;5109283;28;20028;-48
2023/01/11 01:51:26;;;;;;;10.98;2.53;;;4.50;99.90;;;;;;5086457;28;20127;-52
2023/01/11 01:53:55;;;;;;;10.27;2.22;;;4.60;99.90;;;;;;5068894;28;20094;-47
2023/01/11 01:56:30;;;;;;;4.03;1.90;;;4.60;99.90;;;;;;5106790;28;20400;-47
2023/01/11 01:59:01;;;;;;;7.80;2.63;;;4.60;99.90;;;;;;5068629;28;20055;-47
2023/01/11 02:01:47;;;;;;;7.05;3.05;;;4.50;99.90;;;;;;5087243;28;20039;-48
2023/01/11 02:04:18;;;;;;;8.20;2.45;;;4.60;99.90;;;;;;5068725;28;20436;-46
2023/01/11 02:06:44;;;;;;;8.38;2.33;;;4.60;99.90;;;;;;5069607;28;20446;-50
2023/01/11 02:09:35;;;;;;;6.20;2.00;;;4.50;99.90;;;;;;5088534;28;20033;-51
2023/01/11 02:12:02;;;;;;;6.15;1.60;;;4.50;99.90;;;;;;5080909;28;20055;-52
2023/01/11 02:14:30;;;;;;;8.27;1.90;;;4.50;99.90;;;;;;5108981;28;20115;-51
2023/01/11 02:16:56;;;;;;;12.25;2.20;;;4.40;99.90;;;;;;5092019;28;20244;-55
2023/01/11 02:19:39;;;;;;;8.45;1.70;;;4.40;99.90;;;;;;5108808;28;20030;-55
2023/01/11 02:22:42;;;;;;;11.73;2.60;;;4.30;99.90;;;;;;5109053;28;20027;-51
2023/01/11 02:25:28;;;;;;;8.80;2.25;;;4.30;99.90;;;;;;5108938;28;20020;-51
2023/01/11 02:28:06;;;;;;;7.53;2.08;;;4.20;99.90;;;;;;5110666;28;20075;-55
2023/01/11 02:31:03;;;;;;;7.82;2.00;;;4.20;99.90;;;;;;5112712;28;20028;-53
2023/01/11 02:33:34;;;;;;;7.57;1.98;;;4.20;99.90;;;;;;5111423;28;20624;-56
2023/01/11 02:36:24;;;;;;;5.30;1.80;;;4.20;99.90;;;;;;5112506;28;20281;-50
2023/01/11 02:39:07;;;;;;;7.50;1.95;;;4.20;99.90;;;;;;5112646;28;20471;-56
2023/01/11 02:45:01;;;;;;;7.68;2.47;;;4.10;99.90;;;;;;5112430;28;20034;-56
2023/01/11 02:47:58;;;;;;;7.72;2.45;;;4.10;99.90;;;;;;5112789;28;20074;-53
2023/01/11 02:50:34;;;;;;;7.55;1.85;;;4.10;99.90;;;;;;5108192;28;20086;-55
2023/01/11 02:53:07;;;;;;;12.68;2.70;;;4.20;99.90;;;;;;5112282;28;20016;-55
2023/01/11 02:55:40;;;;;;;10.27;2.45;;;4.20;99.90;;;;;;5112311;28;20023;-57
2023/01/11 02:58:10;;;;;;;7.50;2.20;;;4.20;99.90;;;;;;5112429;28;20419;-53
2023/01/11 03:00:39;;;;;;;5.57;2.55;;;4.20;99.90;;;;;;5112144;28;20020;-55
2023/01/11 03:03:07;;;;;;;7.88;2.22;;;4.30;99.90;;;;;;5112419;28;20027;-56
2023/01/11 03:05:38;;;;;;;6.13;2.10;;;4.30;99.90;;;;;;5112194;28;20383;-54
2023/01/11 03:08:23;;;;;;;11.13;2.08;;;4.40;99.90;;;;;;5112085;28;20016;-54
2023/01/11 03:11:08;;;;;;;6.22;1.90;;;4.40;99.90;;;;;;5112045;28;20032;-57
2023/01/11 03:13:48;;;;;;;5.25;1.73;;;4.40;99.90;;;;;;5111923;28;20578;-53
2023/01/11 03:16:24;;;;;;;4.43;1.63;;;4.50;99.90;;;;;;5112173;28;20028;-57
2023/01/11 03:19:18;;;;;;;3.33;1.88;;;4.50;99.90;;;;;;5111928;28;20421;-53
2023/01/11 03:22:02;;;;;;;5.65;1.88;;;4.50;99.90;;;;;;5110547;28;20055;-52
2023/01/11 03:24:49;;;;;;;6.15;1.80;;;4.50;99.70;;;;;;5111776;28;20020;-53
2023/01/11 03:27:25;;;;;;;9.98;1.60;;;4.50;99.90;;;;;;5111607;28;20066;-52
2023/01/11 03:30:10;;;;;;;5.10;1.60;;;4.50;99.90;;;;;;5111646;28;20028;-55
2023/01/11 03:33:19;;;;;;;4.25;1.85;;;4.50;99.40;;;;;;5111509;28;20080;-51
2023/01/11 03:35:51;;;;;;;6.25;1.80;;;4.50;99.90;;;;;;5111500;28;20043;-53
2023/01/11 03:38:25;;;;;;;4.38;1.60;;;4.60;99.50;;;;;;5110876;28;20170;-56
2023/01/11 03:40:59;;;;;;;2.80;1.27;;;4.60;99.90;;;;;;5111730;28;20390;-55
2023/01/11 03:43:28;;;;;;;12.25;1.50;;;4.60;99.10;;;;;;5110045;28;20444;-51
2023/01/11 03:46:01;;;;;;;5.72;1.65;;;4.60;98.90;;;;;;5111436;28;20060;-55
2023/01/11 03:49:08;;;;;;;2.53;1.42;;;4.60;98.90;;;;;;5111279;28;20016;-55
2023/01/11 03:51:39;;;;;;;3.55;1.52;;;4.60;98.90;;;;;;5089900;28;20046;-55
2023/01/11 03:54:07;;;;;;;7.25;2.08;;;4.60;99.00;;;;;;5111213;28;20076;-55
2023/01/11 03:56:42;;;;;;;3.92;1.70;;;4.50;98.50;;;;;;5109822;28;20023;-53
2023/01/11 03:59:07;;;;;;;4.05;1.17;;;4.60;98.10;;;;;;5111166;28;20586;-51
2023/01/11 04:01:33;;;;;;;5.88;1.50;;;4.60;98.00;;;;;;5091111;28;20051;-54
2023/01/11 04:03:59;;;;;;;5.32;1.70;;;4.60;98.20;;;;;;5082685;28;20028;-59
2023/01/11 04:06:24;;;;;;;5.53;2.00;;;4.60;98.20;;;;;;5110164;28;20016;-59
2023/01/11 04:08:50;;;;;;;4.00;1.90;;;4.70;98.00;;;;;;5088991;28;20081;-59
2023/01/11 04:11:15;;;;;;;5.90;2.20;;;4.70;98.60;;;;;;5110176;28;20028;-60
2023/01/11 04:13:41;;;;;;;4.47;1.95;;;4.80;97.00;;;;;;5089288;28;20085;-55
2023/01/11 04:16:06;;;;;;;6.18;1.48;;;4.80;96.90;;;;;;5110150;28;20028;-54
2023/01/11 04:18:32;;;;;;;3.45;1.52;;;4.80;97.20;;;;;;5089002;28;20484;-54
2023/01/11 04:20:58;;;;;;;3.75;1.45;;;4.80;97.00;;;;;;5092029;28;20028;-52
2023/01/11 04:23:23;;;;;;;2.20;1.33;;;4.90;96.90;;;;;;5109983;28;20020;-52
2023/01/11 04:25:49;;;;;;;4.07;1.60;;;4.90;96.90;;;;;;5089148;28;20396;-56
2023/01/11 04:28:14;;;;;;;4.40;1.70;;;4.90;96.20;;;;;;5098947;28;20028;-53
2023/01/11 04:30:40;;;;;;;6.00;1.58;;;4.90;95.60;;;;;;5094357;28;20036;-50
2023/01/11 04:33:05;;;;;;;6.60;1.42;;;4.90;96.10;;;;;;5109911;28;20035;-54
2023/01/11 04:35:31;;;;;;;5.15;1.77;;;4.90;95.90;;;;;;5088914;28;20028;-52
2023/01/11 04:37:56;;;;;;;9.70;1.80;;;4.90;94.90;;;;;;5088642;28;20346;-54
2023/01/11 04:40:23;;;;;;;7.93;1.63;;;4.90;95.80;;;;;;5109851;28;20035;-52
2023/01/11 04:42:48;;;;;;;6.22;1.83;;;4.90;95.90;;;;;;5088752;28;20024;-54
2023/01/11 04:45:14;;;;;;;6.20;1.98;;;5.00;95.10;;;;;;5109668;28;20035;-53
2023/01/11 04:47:39;;;;;;;5.35;1.75;;;4.90;95.20;;;;;;5088570;28;20080;-52
2023/01/11 04:50:06;;;;;;;4.93;1.30;;;5.00;96.00;;;;;;5108875;28;20043;-54
2023/01/11 04:52:31;;;;;;;3.85;1.75;;;5.00;96.30;;;;;;5088552;28;20032;-53
2023/01/11 04:54:57;;;;;;;6.35;1.40;;;5.00;95.10;;;;;;5109329;28;20031;-49
2023/01/11 04:57:24;;;;;;;4.47;1.90;;;5.10;95.40;;;;;;5088510;28;20066;-52
2023/01/11 04:59:49;;;;;;;4.22;1.35;;;5.10;94.90;;;;;;5108387;28;20531;-54
2023/01/11 05:02:15;;;;;;;7.03;1.20;;;5.10;95.60;;;;;;5087075;28;20055;-51
2023/01/11 05:04:40;;;;;;;4.30;1.42;;;5.10;94.80;;;;;;5086612;28;20020;-53
2023/01/11 05:07:07;;;;;;;6.35;1.60;;;5.10;95.60;;;;;;5092832;28;20028;-49
2023/01/11 05:09:33;;;;;;;4.93;1.70;;;5.10;94.80;;;;;;5088965;28;20036;-52
2023/01/11 05:11:58;;;;;;;4.63;2.38;;;5.20;95.40;;;;;;5095796;28;20039;-53
2023/01/11 05:14:24;;;;;;;5.30;1.73;;;5.20;94.70;;;;;;5109070;28;20149;-53
2023/01/11 05:16:50;;;;;;;5.25;1.80;;;5.20;95.10;;;;;;5098278;28;20023;-51
2023/01/11 05:19:15;;;;;;;9.23;2.33;;;5.20;94.40;;;;;;5089029;28;20035;-53
2023/01/11 05:21:41;;;;;;;5.53;1.75;;;5.20;93.80;;;;;;5095802;28;20187;-48
2023/01/11 05:24:11;;;;;;;7.32;2.58;;;5.20;94.60;;;;;;5089932;28;20020;-53
2023/01/11 05:26:39;;;;;;;6.40;1.77;;;5.20;94.50;;;;;;5083735;28;20031;-53
2023/01/11 05:29:08;;;;;;;6.20;2.47;;;5.20;94.40;;;;;;5089338;28;20044;-55
2023/01/11 05:31:35;;;;;;;6.30;1.90;;;5.20;94.80;;;;;;5107305;28;20027;-53
2023/01/11 05:34:01;;;;;;;4.97;2.05;;;5.20;94.40;;;;;;5089118;28;20097;-54
2023/01/11 05:36:27;;;;;;;6.13;2.65;;;5.20;94.40;;;;;;5106680;28;20031;-53
2023/01/11 05:38:55;;;;;;;4.05;2.25;;;5.30;94.90;;;;;;5109448;28;20487;-55
2023/01/11 05:41:23;;;;;;;4.20;2.65;;;5.20;94.50;;;;;;5093467;28;20776;-55
2023/01/11 05:46:36;;;;;;;6.07;2.28;;;5.20;94.40;;;;;;5082811;28;20511;-51
2023/01/11 05:49:03;;;;;;;6.05;2.03;;;5.30;94.90;;;;;;5089248;28;20040;-55
2023/01/11 05:51:29;;;;;;;5.80;2.80;;;5.20;95.20;;;;;;5096144;28;20456;-54
2023/01/11 05:53:55;;;;;;;6.20;1.92;;;5.30;94.80;;;;;;5108181;28;20123;-52
2023/01/11 05:56:21;;;;;;;4.75;1.67;;;5.30;94.30;;;;;;5093499;28;20027;-54
2023/01/11 05:58:48;;;;;;;4.63;2.30;;;5.30;94.80;;;;;;5109439;28;20102;-52
2023/01/11 06:01:15;;;;;;;4.60;1.80;;;5.30;94.70;;;;;;5084762;28;20036;-52
2023/01/11 06:03:40;;;;;;;6.10;1.95;;;5.30;94.60;;;;;;5090115;28;20726;-56
2023/01/11 06:06:06;;;;;;;4.57;1.90;;;5.30;95.30;;;;;;5110799;28;20052;-52
2023/01/11 06:08:32;;;;;;;4.40;1.60;;;5.30;94.40;;;;;;5092859;28;20039;-51
2023/01/11 06:10:57;;;;;;;5.00;2.30;;;5.30;94.20;;;;;;5109430;28;20024;-51
2023/01/11 06:13:27;;;;;;;5.93;2.53;;;5.40;94.50;;;;;;5092246;28;20088;-51
2023/01/11 06:15:56;;;;;;;4.50;2.20;;;5.40;94.50;;;;;;5111020;28;20038;-48
2023/01/11 06:18:22;;;;;;;8.25;1.70;;;5.40;94.60;;;;;;5092844;28;20059;-51
2023/01/11 06:20:51;;;;;;;4.55;2.08;;;5.40;94.50;;;;;;5095042;28;20066;-52
2023/01/11 06:23:17;;;;;;;6.10;2.28;;;5.40;95.00;;;;;;5101364;28;20060;-55
2023/01/11 06:25:43;;;;;;;6.88;2.13;;;5.40;95.30;;;;;;5091019;28;20058;-55
2023/01/11 06:28:09;;;;;;;4.15;1.85;;;5.40;95.10;;;;;;5098820;28;20547;-51
2023/01/11 06:30:34;;;;;;;7.90;2.08;;;5.40;95.00;;;;;;5101408;28;20502;-50
2023/01/11 06:33:06;;;;;;;5.50;1.85;;;5.30;95.30;;;;;;5089650;28;20510;-46
2023/01/11 06:35:41;;;;;;;5.78;2.15;;;5.40;95.90;;;;;;5090322;28;20016;-48
2023/01/11 06:38:10;;;;;;;6.18;1.95;;;5.30;96.50;;;;;;5083237;28;20032;-49
2023/01/11 06:40:36;;;;;;;5.82;2.30;;;5.30;97.10;;;;;;5101781;28;20030;-48
2023/01/11 06:43:02;;;;;;;6.43;2.28;;;5.30;97.20;;;;;;5112011;28;20027;-48
2023/01/11 06:45:27;;;;;;;5.07;1.77;;;5.30;96.90;;;;;;5097748;28;20020;-48
2023/01/11 06:47:53;;;;;;;9.70;2.42;;;5.30;97.10;;;;;;5111507;28;20056;-46
2023/01/11 06:50:18;;;;;;;4.03;1.58;;;5.30;96.80;;;;;;5098181;28;20032;-46
2023/01/11 06:52:51;;;;;;;6.22;2.05;;;5.30;96.90;;;;;;5091408;28;20070;-49
2023/01/11 06:55:17;;;;;;;5.05;2.45;;;5.40;96.80;;;;;;5088725;28;20019;-46
2023/01/11 06:57:42;;;;;;;7.78;1.77;;;5.40;96.60;;;;;;5092223;28;20047;-51
2023/01/11 07:00:09;;;;;;;5.43;3.00;;;5.40;97.10;;;;;;5109513;28;20072;-53
2023/01/11 07:02:34;;;;;;;3.95;2.05;;;5.30;96.30;;;;;;5097520;28;20415;-47
2023/01/11 07:04:59;;;;;;;7.00;2.78;;;5.30;96.70;;;;;;5086082;28;20032;-46
2023/01/11 07:07:25;;;;;;;10.27;2.60;;;5.30;96.70;;;;;;5109206;28;20123;-48
2023/01/11 07:09:52;;;;;;;7.57;2.70;;;5.30;97.10;;;;;;5092096;28;20032;-48
2023/01/11 07:12:18;;;;;;;7.18;2.30;;;5.30;96.70;;;;;;5102587;28;20519;-48
2023/01/11 07:14:43;;;;;;;6.60;2.15;;;5.30;97.20;;;;;;5090788;28;20024;-48
2023/01/11 07:17:09;;;;;;;7.80;2.45;;;5.30;97.30;;;;;;5103647;28;20407;-46
2023/01/11 07:19:34;;;;;;;8.30;2.03;;;5.30;97.60;;;;;;5091435;28;20032;-49
2023/01/11 07:21:59;;;;;;;7.13;1.90;;;5.40;97.80;;;;;;5104853;28;20051;-50
2023/01/11 07:24:25;;;;;;;3.88;1.70;;;5.40;97.60;;;;;;5091501;28;20046;-46
2023/01/11 07:26:52;;;;;;;2.90;1.85;;;5.40;97.60;;;;;;5105833;28;20481;-52
2023/01/11 07:29:17;;;;;;;2.20;1.70;;;5.40;96.90;;;;;;5091051;28;20074;-50
2023/01/11 07:31:44;;;;;;;4.10;1.70;;;5.40;97.00;;;;;;5107017;28;20460;-49
2023/01/11 07:34:10;;;;;;;2.67;2.03;;;5.40;97.30;;;;;;5091242;28;20494;-52
2023/01/11 07:36:38;;;;;;;5.00;1.67;;;5.40;97.20;;;;;;5107694;28;20053;-50
2023/01/11 07:39:04;;;;;;;4.90;1.92;;;5.50;97.30;;;;;;5091283;28;20104;-50
2023/01/11 07:44:33;;;;;;;6.85;2.20;;;5.50;97.40;;;;;;5008635;28;20498;-52
2023/01/11 07:46:59;;;;;;;4.35;1.80;;;5.50;97.80;;;;;;5002419;28;20034;-50
2023/01/11 07:49:24;;;;;;;2.25;1.70;;;5.50;97.80;;;;;;5042938;28;20418;-51
2023/01/11 07:51:51;;;;;;;5.07;1.75;;;5.50;97.70;;;;;;5089267;28;20082;-51
2023/01/11 07:54:17;;;;;;;2.75;1.55;;;5.60;97.80;;;;;;5090924;28;20020;-46
2023/01/11 07:56:42;;;;;;;6.07;1.85;;;5.60;97.70;;;;;;5108455;28;20552;-49
2023/01/11 07:59:08;;;;;;;8.05;2.00;;;5.60;97.90;;;;;;5111040;28;20036;-50
2023/01/11 08:01:34;;;;;;;4.20;1.73;;;5.60;97.80;;;;;;5088957;28;20055;-47
2023/01/11 08:04:00;;;;;;;2.88;1.70;;;5.60;97.80;;;;;;5087328;28;20436;-48
2023/01/11 08:06:25;;;;;;;5.43;1.48;;;5.70;97.70;;;;;;5110365;28;20088;-48
2023/01/11 08:08:51;;;;;;;4.28;2.05;;;5.70;97.10;;;;;;5108808;28;20039;-46
2023/01/11 08:17:01;;;;;;;7.10;1.75;;;5.80;97.40;;;;;;5065535;28;20052;-54
2023/01/11 08:19:27;;;;;;;4.95;2.00;;;5.80;97.60;;;;;;5099638;28;20556;-56
2023/01/11 08:21:52;;;;;;;9.07;1.75;;;5.80;98.30;;;;;;5088717;28;20035;-55
2023/01/11 08:24:18;;;;;;;5.78;1.80;;;5.90;98.40;;;;;;5090353;28;20027;-56
2023/01/11 08:26:44;;;;;;;4.15;1.83;;;5.90;98.30;;;;;;5105904;28;20028;-54
2023/01/11 08:29:10;;;;;;;5.40;1.83;;;5.90;98.20;;;;;;5089858;28;20044;-56
2023/01/11 08:31:35;;;;;;;3.45;1.92;;;6.00;98.00;;;;;;5106742;28;20081;-56
2023/01/11 08:34:01;;;;;;;4.78;1.95;;;6.00;98.40;;;;;;5090215;28;20032;-57
2023/01/11 08:36:26;;;;;;;5.82;1.80;;;6.00;97.90;;;;;;5109349;28;20032;-56
2023/01/11 08:38:56;;;;;;;3.80;2.00;;;6.10;98.10;;;;;;5088244;28;20445;-57
2023/01/11 08:41:22;;;;;;;5.22;1.83;;;6.10;98.70;;;;;;5109496;28;20395;-53
2023/01/11 08:43:48;;;;;;;4.25;1.80;;;6.10;98.20;;;;;;5088241;28;20028;-57
2023/01/11 08:46:14;;;;;;;4.00;1.60;;;6.20;98.80;;;;;;5109572;28;20084;-57
2023/01/11 08:48:40;;;;;;;4.65;1.85;;;6.20;98.90;;;;;;5088317;28;20035;-55
2023/01/11 08:51:05;;;;;;;4.93;1.80;;;6.30;98.60;;;;;;5109101;28;20426;-55
2023/01/11 08:53:31;;;;;;;6.05;2.03;;;6.30;99.10;;;;;;5086972;28;20024;-56
2023/01/11 08:55:56;;;;;;;3.60;1.63;;;6.30;99.30;;;;;;5109296;28;20032;-57
2023/01/11 08:58:22;;;;;;;2.90;1.70;;;6.40;99.30;;;;;;5088301;28;20082;-57
2023/01/11 09:00:47;;;;;;;2.90;1.45;;;6.40;99.70;;;;;;5109171;28;20035;-56
2023/01/11 09:03:13;;;;;;;2.72;1.52;;;6.50;99.80;;;;;;5095848;28;20039;-55
2023/01/11 09:05:40;;;;;;;5.07;2.42;;;6.50;99.50;;;;;;5090025;28;20039;-57
2023/01/11 09:08:07;;;;;;;3.58;1.73;;;6.50;99.20;;;;;;5092598;28;20119;-56
2023/01/11 09:10:33;;;;;;;5.65;2.17;;;6.60;99.70;;;;;;5108997;28;20126;-56
2023/01/11 09:12:59;;;;;;;8.73;3.55;;;6.60;99.60;;;;;;5087932;28;20024;-54
2023/01/11 09:15:25;;;;;;;6.65;2.42;;;6.70;99.90;;;;;;5108870;28;20447;-57
2023/01/11 09:17:51;;;;;;;6.80;3.08;;;6.70;99.90;;;;;;5087948;28;20047;-55
2023/01/11 09:20:21;;;;;;;3.63;2.25;;;6.80;99.90;;;;;;5108854;28;20031;-52
2023/01/11 09:22:47;;;;;;;7.03;3.53;;;6.80;99.90;;;;;;5087170;28;20515;-56
2023/01/11 09:25:14;;;;;;;11.40;4.57;;;6.90;99.60;;;;;;5108988;28;20039;-59
2023/01/11 09:27:43;;;;;;;8.00;3.25;;;6.90;99.90;;;;;;5086096;28;20185;-57
2023/01/11 09:30:11;;;;;;;4.53;2.33;;;7.00;99.90;;;;;;5108825;28;20039;-56
2023/01/11 09:32:37;;;;;;;7.10;2.00;;;7.10;99.90;;;;;;5087462;28;20032;-56
2023/01/11 09:35:03;;;;;;;2.63;1.60;;;7.10;99.90;;;;;;5108653;28;20042;-54
2023/01/11 09:37:29;;;;;;;5.10;1.83;;;7.20;99.90;;;;;;5086736;28;20027;-55
2023/01/11 09:39:56;;;;;;;2.22;1.50;;;7.20;99.90;;;;;;5108469;28;20042;-54
2023/01/11 09:42:35;;;;;;;8.30;2.30;;;7.30;99.90;;;;;;5094395;28;20023;-56
2023/01/11 09:45:22;;;;;;;5.05;1.98;;;7.30;99.90;;;;;;5068681;28;20032;-55
2023/01/11 09:48:02;;;;;;;3.50;1.25;;;7.40;99.90;;;;;;5077595;28;20099;-53
2023/01/11 09:50:30;;;;;;;3.28;1.55;;;7.40;99.90;;;;;;5068761;28;20055;-56
2023/01/11 09:52:59;;;;;;;2.85;1.38;;;7.50;99.90;;;;;;5094838;28;20089;-53
2023/01/11 09:55:39;;;;;;;2.92;1.40;;;7.50;99.90;;;;;;5107551;28;20054;-55
2023/01/11 09:58:49;;;;;;;2.78;1.52;;;7.60;99.90;;;;;;5087045;28;20028;-58
2023/01/11 10:01:23;;;;;;;3.63;1.60;;;7.60;99.90;;;;;;5068529;28;20112;-56
2023/01/11 10:03:58;;;;;;;4.38;1.42;;;7.70;99.90;;;;;;5082677;28;20042;-57
2023/01/11 10:06:41;;;;;;;3.22;1.52;;;7.70;99.90;;;;;;5068690;28;20029;-54
2023/01/11 10:09:38;;;;;;;2.90;1.70;;;7.70;99.90;;;;;;5067063;28;20118;-56
2023/01/11 10:12:16;;;;;;;2.50;1.65;;;7.80;99.90;;;;;;5071454;28;20024;-54
2023/01/11 10:15:03;;;;;;;2.60;1.38;;;7.90;99.90;;;;;;5088516;28;20526;-52
2023/01/11 10:17:43;;;;;;;1.95;1.30;;;7.90;99.90;;;;;;5074648;28;20031;-56
2023/01/11 10:20:11;;;;;;;2.33;1.25;;;7.90;99.90;;;;;;5068511;28;20041;-54
2023/01/11 10:22:43;;;;;;;2.55;1.70;;;8.00;99.90;;;;;;5096133;28;20101;-52
2023/01/11 10:25:13;;;;;;;4.63;1.40;;;7.90;99.90;;;;;;5068562;28;20087;-54
2023/01/11 10:27:51;;;;;;;2.17;1.38;;;8.00;99.90;;;;;;5096388;28;20036;-55
2023/01/11 10:30:33;;;;;;;2.15;1.38;;;8.00;99.90;;;;;;5068325;28;20041;-55
2023/01/11 10:33:37;;;;;;;4.57;1.70;;;8.00;99.90;;;;;;5078848;28;20042;-56
2023/01/11 10:36:24;;;;;;;3.80;2.10;;;8.10;99.90;;;;;;5068069;28;20025;-56
2023/01/11 10:41:49;;;;;;;4.03;1.67;;;8.10;99.90;;;;;;5068195;28;20037;-55
2023/01/11 10:44:23;;;;;;;2.22;1.52;;;8.20;99.90;;;;;;5068382;28;20028;-55
2023/01/11 10:46:51;;;;;;;4.05;1.80;;;8.20;99.90;;;;;;5069093;28;20435;-57
2023/01/11 10:49:44;;;;;;;3.22;1.85;;;8.20;99.90;;;;;;5090780;28;20035;-55
2023/01/11 10:52:39;;;;;;;2.70;1.60;;;8.20;99.90;;;;;;5090165;28;20024;-56
2023/01/11 10:55:23;;;;;;;3.65;1.80;;;8.30;99.90;;;;;;5091914;28;20492;-53
2023/01/11 10:58:09;;;;;;;1.52;0.80;;;8.30;99.90;;;;;;5080718;28;20532;-56
2023/01/11 11:00:53;;;;;;;1.75;1.05;;;8.30;99.90;;;;;;5070456;28;20059;-50
2023/01/11 11:03:38;;;;;;;3.70;1.30;;;8.30;99.90;;;;;;5092961;28;20072;-56
2023/01/11 11:06:42;;;;;;;4.27;1.30;;;8.30;99.90;;;;;;5071372;28;20032;-54
2023/01/11 11:09:20;;;;;;;4.47;1.55;;;8.30;99.90;;;;;;5071251;28;20054;-55
2023/01/11 11:12:07;;;;;;;1.50;1.20;;;8.30;99.90;;;;;;5071689;28;20028;-54
2023/01/11 11:14:35;;;;;;;2.47;1.50;;;8.20;99.90;;;;;;5091418;28;20175;-56
2023/01/11 11:17:19;;;;;;;2.08;1.35;;;8.20;99.90;;;;;;5105183;28;20032;-57
2023/01/11 11:19:45;;;;;;;3.47;1.38;;;8.10;99.90;;;;;;5091510;28;20028;-57
2023/01/11 11:22:11;;;;;;;2.55;1.10;;;8.10;99.90;;;;;;5103387;28;20062;-57
2023/01/11 11:24:46;;;;;;;4.05;1.15;;;8.10;99.90;;;;;;5091356;28;20024;-54
2023/01/11 11:27:37;;;;;;;1.85;1.30;;;8.10;99.90;;;;;;5074992;28;20043;-55
2023/01/11 11:30:04;;;;;;;3.65;1.10;;;8.00;99.90;;;;;;5071019;28;20107;-55
2023/01/11 11:32:36;;;;;;;3.55;1.40;;;8.10;99.90;;;;;;5100247;28;20080;-56
2023/01/11 11:35:02;;;;;;;3.83;1.73;;;8.00;99.90;;;;;;5071059;28;20029;-55
2023/01/11 11:37:39;;;;;;;4.53;1.55;;;8.00;99.90;;;;;;5099933;28;20134;-55
2023/01/11 11:40:05;;;;;;;4.15;1.52;;;8.00;99.90;;;;;;5070899;28;20027;-57
2023/01/11 11:42:31;;;;;;;1.85;1.38;;;8.00;99.90;;;;;;5099735;28;20042;-58
2023/01/11 11:45:08;;;;;;;1.10;0.95;;;8.00;99.90;;;;;;5110519;28;20483;-56
2023/01/11 11:47:34;;;;;;;1.42;1.27;;;7.90;99.90;;;;;;5089574;28;20028;-57
2023/01/11 11:50:18;;;;;;;2.88;1.40;;;7.90;99.90;;;;;;5110539;28;20038;-56
2023/01/11 11:52:49;;;;;;;1.55;0.98;;;7.90;99.90;;;;;;5089175;28;20044;-55
2023/01/11 11:55:15;;;;;;;2.60;1.25;;;7.90;99.90;;;;;;5070517;28;20040;-59
2023/01/11 11:57:42;;;;;;;1.23;1.13;;;7.80;99.90;;;;;;5097931;28;20031;-53
2023/01/11 12:00:23;;;;;;;2.35;1.50;;;7.80;99.90;;;;;;5110058;28;20091;-57
2023/01/11 12:02:53;;;;;;;3.42;1.40;;;7.80;99.90;;;;;;5076152;28;20047;-57
2023/01/11 12:05:18;;;;;;;1.80;1.40;;;7.80;99.90;;;;;;5090400;28;20464;-57
2023/01/11 12:07:47;;;;;;;2.30;1.50;;;7.70;99.90;;;;;;5097710;28;20036;-55
2023/01/11 12:10:19;;;;;;;2.85;1.48;;;7.70;99.90;;;;;;5097291;28;20551;-56
2023/01/11 12:12:56;;;;;;;1.40;1.23;;;7.70;99.90;;;;;;5110579;28;20031;-56
2023/01/11 12:15:29;;;;;;;3.72;1.30;;;7.70;99.90;;;;;;5080912;28;20043;-57
2023/01/11 12:18:20;;;;;;;1.00;0.90;;;7.70;99.90;;;;;;5070474;28;20036;-57
2023/01/11 12:20:46;;;;;;;1.60;1.17;;;7.70;99.90;;;;;;5084105;28;20737;-56
2023/01/11 12:23:20;;;;;;;1.50;1.13;;;7.70;99.90;;;;;;5110110;28;20066;-55
2023/01/11 12:26:11;;;;;;;2.08;1.30;;;7.70;99.90;;;;;;5088547;28;20111;-57
2023/01/11 12:28:40;;;;;;;1.20;1.00;;;7.80;99.90;;;;;;5069784;28;20572;-48
2023/01/11 12:31:21;;;;;;;2.58;1.40;;;7.80;99.90;;;;;;5089761;28;20043;-56
2023/01/11 12:34:13;;;;;;;1.30;1.15;;;7.80;99.90;;;;;;5069573;28;20123;-57
2023/01/11 12:36:54;;;;;;;3.85;1.65;;;7.80;99.90;;;;;;5069589;28;20040;-58
2023/01/11 12:39:27;;;;;;;2.20;1.55;;;7.90;99.90;;;;;;5071381;28;20572;-57
2023/01/11 12:42:06;;;;;;;2.63;1.20;;;7.90;99.90;;;;;;5090000;28;20020;-56
2023/01/11 12:44:50;;;;;;;3.05;1.17;;;7.90;99.90;;;;;;5072787;28;20031;-57
2023/01/11 12:47:50;;;;;;;2.92;1.35;;;7.90;99.90;;;;;;5109491;28;20028;-57
2023/01/11 12:50:32;;;;;;;2.22;1.20;;;7.90;99.90;;;;;;5079019;28;20035;-57
2023/01/11 12:53:03;;;;;;;1.98;1.15;;;7.90;99.90;;;;;;5069475;28;20037;-55
2023/01/11 12:55:50;;;;;;;1.30;1.10;;;7.90;99.90;;;;;;5080725;28;20170;-53
2023/01/11 12:58:37;;;;;;;1.17;0.85;;;7.90;99.90;;;;;;5069536;28;20081;-55
2023/01/11 13:01:24;;;;;;;2.28;1.30;;;7.90;99.90;;;;;;5085567;28;20028;-55
2023/01/11 13:04:38;;;;;;;3.58;1.30;;;7.90;99.90;;;;;;5084995;28;20111;-55
2023/01/11 13:07:29;;;;;;;1.92;1.00;;;7.90;99.90;;;;;;5069068;28;20038;-55
2023/01/11 13:10:10;;;;;;;1.77;1.05;;;7.90;99.90;;;;;;5075662;28;20387;-54
2023/01/11 13:12:50;;;;;;;1.52;1.42;;;7.90;99.90;;;;;;5068690;28;20169;-57
2023/01/11 13:15:18;;;;;;;1.52;1.27;;;7.90;99.90;;;;;;5078395;28;20044;-54
2023/01/11 13:17:51;;;;;;;1.90;1.40;;;7.90;99.90;;;;;;5108648;28;20028;-56
2023/01/11 13:20:38;;;;;;;1.65;1.02;;;8.00;99.90;;;;;;5078754;28;20104;-57
2023/01/11 13:23:04;;;;;;;;;;;8.00;99.90;;;;;;5069527;28;20048;-56
2023/01/11 13:25:35;;;;;;;2.20;1.05;;;8.00;99.90;;;;;;5092878;28;20090;-57
2023/01/11 13:28:08;;;;;;;1.73;1.33;;;8.00;99.90;;;;;;5085751;28;20559;-57
2023/01/11 13:30:33;;;;;;;3.42;1.33;;;8.00;99.90;;;;;;5080913;28;20156;-57
2023/01/11 13:33:06;;;;;;;1.08;0.90;;;8.00;99.90;;;;;;5107628;28;20040;-55
2023/01/11 13:35:53;;;;;;;1.63;1.20;;;8.00;99.90;;;;;;5080652;28;20031;-56
2023/01/11 13:38:34;;;;;;;2.10;1.20;;;8.00;99.90;;;;;;5068912;28;20044;-54
2023/01/11 13:41:11;;;;;;;2.65;1.38;;;8.00;99.90;;;;;;5084496;28;20032;-58
2023/01/11 13:43:56;;;;;;;2.45;1.63;;;8.00;99.90;;;;;;5068828;28;20028;-57
2023/01/11 13:46:51;;;;;;;1.67;1.38;;;8.00;99.90;;;;;;5067558;28;20504;-57